ADDS METAR Data INFO
IDs: Format: Raw Decoded Include TAF

Data at: 0217 UTC 18 Jan 2018

PAIG 171856Z AUTO 03004KT 10SM -SN OVC023 00/M01 A2926 RMK AO2 UPB43E51SNE43B51 SLP918 P0001 T00001011 FZRANO $
PAIG 171832Z AUTO 11004KT 9SM -SN BKN023 OVC035 M01/M02 A2925 RMK AO2 P0001 FZRANO $
PAIG 171756Z AUTO 00000KT 9SM -SN BKN033 OVC045 M02/M03 A2923 RMK AO2 SNB21 SLP911 P0000 60000 T10221028 11022 21033 53015 FZRANO $
PAIG 171656Z AUTO 00000KT 10SM FEW045 BKN075 M03/M04 A2921 RMK AO2 SNE17 SLP903 P0000 T10331039 FZRANO $
PAIG 171556Z AUTO 17003KT 10SM -SN FEW026 SCT031 OVC110 M03/M03 A2920 RMK AO2 SNB54 SLP900 P0000 T10281033 FZRANO $
PAIG 171456Z AUTO 16008KT 10SM FEW041 SCT120 M03/M03 A2919 RMK AO2 SLP896 60000 T10281033 53007 FZRANO $
PAIG 171356Z AUTO 18004KT 10SM BKN055 OVC100 M02/M03 A2918 RMK AO2 UPE33 SLP893 P0000 T10221028 FZRANO $
PAIG 171256Z AUTO 18004KT 10SM UP BKN050 OVC070 M02/M03 A2917 RMK AO2 UPB44 SLP890 P0000 T10221028 FZRANO $
PAIG 171156Z AUTO 20004KT 10SM BKN070 OVC085 M03/M03 A2917 RMK AO2 SLP889 60000 70004 T10281033 11022 21039 53007 FZRANO $
PAIG 171056Z AUTO 16004KT 10SM SCT055 OVC080 M03/M03 A2917 RMK AO2 SLP888 T10281033 FZRANO $
PAIG 170956Z AUTO 19005KT 10SM OVC095 M03/M04 A2914 RMK AO2 SLP880 T10331039 FZRANO $
PAIG 170856Z AUTO 17005KT 10SM CLR M04/M04 A2915 RMK AO2 SLP882 60000 T10391044 410171078 53002 FZRANO $
PAIG 170756Z AUTO 18006KT 10SM FEW110 M03/M04 A2915 RMK AO2 SLP881 T10331039 FZRANO $
PAIG 170656Z AUTO 20006KT 10SM FEW049 M03/M03 A2914 RMK AO2 SNE02 SLP880 P0000 T10281033 FZRANO $
PAIG 170556Z AUTO 20007KT 9SM -SN OVC055 M02/M03 A2914 RMK AO2 SNB0457E12B48 SLP879 P0000 60000 T10221028 11022 21028 58002 FZRANO $
PAIG 170456Z AUTO 15004KT 10SM OVC060 M02/M03 A2915 RMK AO2 SLP883 T10221033 FZRANO $
PAIG 170356Z AUTO 19004KT 10SM BKN065 OVC080 M03/M03 A2914 RMK AO2 SLP878 T10281033 FZRANO $
PAIG 170256Z AUTO 18004KT 10SM BKN070 OVC090 M03/M03 A2915 RMK AO2 SLP881 T10281028 58008 FZRANO $
PAIG 170156Z AUTO 20003KT 10SM BKN085 OVC120 M02/M03 A2915 RMK AO2 SLP883 T10221028 FZRANO $
PAIG 170056Z AUTO 16004KT 10SM FEW060 OVC110 M02/M03 A2916 RMK AO2 SLP886 T10221028 FZRANO $
PAIG 162356Z AUTO 20003KT 10SM FEW012 M02/M03 A2917 RMK AO2 SLP888 P0001 60004 T10221028 11017 21039 56013 FZRANO $
PAIG 162348Z AUTO 18003KT 10SM SCT012 M03/M03 A2917 RMK AO2 P0001 FZRANO $
PAIG 162328Z AUTO 17004KT 10SM BKN012 M03/M03 A2917 RMK AO2 FZRANO $
PAIG 162321Z AUTO 18003KT 10SM SCT012 M03/M03 A2918 RMK AO2 FZRANO $
PAIG 162205Z AUTO 27004KT 10SM BKN014 OVC023 M02/M03 A2919 RMK AO2 FZRANO $
PAIG 162156Z AUTO 28003KT 10SM BKN016 OVC023 M02/M03 A2920 RMK AO2 SNE39 SLP898 P0000 T10221028 FZRANO $
PAIG 162111Z AUTO 31004KT 3SM -SN BR BKN022 OVC026 M03/M03 A2921 RMK AO2 P0000 FZRANO $
PAIG 162056Z AUTO 30005KT 1 3/4SM -SN BR FEW004 OVC021 M02/M03 A2921 RMK AO2 VIS 1 1/4V2 1/2 SLP901 P0000 60000 T10221028 58002 FZRANO $
PAIG 162051Z AUTO 30007KT 1 3/4SM -SN BR FEW004 SCT013 OVC021 M02/M03 A2921 RMK AO2 VIS 1 1/4V2 1/2 P0000 FZRANO $
PAIG 162044Z AUTO 30007KT 1 1/2SM -SN BR SCT013 OVC021 M02/M02 A2921 RMK AO2 P0000 FZRANO $
PAIG 162033Z AUTO 31007KT 1SM -SN BR SCT003 OVC013 M02/M02 A2921 RMK AO2 P0000 FZRANO $
PAIG 162010Z AUTO 27003KT 3/4SM -SN BR BKN003 OVC010 M03/M03 A2921 RMK AO2 P0000 FZRANO $
PAIG 162005Z AUTO 26004KT 1/2SM SN FZFG BKN005 OVC010 M03/M03 A2921 RMK AO2 P0000 FZRANO $
PAIG 161956Z AUTO 00000KT 1/2SM SN FZFG SCT005 BKN010 OVC016 M03/M03 A2921 RMK AO2 SNB29 CIG 008V013 SLP903 P0000 T10281033 FZRANO $
PAIG 161948Z AUTO 00000KT 1/2SM -SN FZFG BKN010 BKN015 OVC026 M03/M03 A2921 RMK AO2 SNB29 CIG 006V013 P0000 FZRANO $
PAIG 161943Z AUTO 00000KT 3/4SM -SN BR SCT010 BKN015 OVC035 M03/M04 A2921 RMK AO2 SNB29 P0000 FZRANO $
PAIG 161938Z AUTO 00000KT 2SM -SN BR FEW010 BKN018 OVC060 M03/M04 A2921 RMK AO2 SNB29 CIG 014V027 P0000 FZRANO $
PAIG 161856Z AUTO 13003KT 10SM FEW040 SCT060 OVC075 M03/M04 A2921 RMK AO2 SLP901 T10331044 FZRANO $
PAIG 161756Z AUTO 17005KT 10SM BKN060 M04/M05 A2920 RMK AO2 SLP899 T10391050 11039 21078 56028 FZRANO $
PAIG 161656Z AUTO 17007KT 10SM FEW120 M04/M05 A2922 RMK AO2 SLP904 T10441050 FZRANO $
PAIG 161556Z AUTO 16005KT 10SM CLR M06/M06 A2924 RMK AO2 SLP914 T10561061 FZRANO $
PAIG 161456Z AUTO 17004KT 10SM CLR M05/M06 A2928 RMK AO2 SLP927 T10501056 58035 FZRANO $